Time;durP1;ratioP1;P1;durP2;ratioP2;P2;SDS_P1;SDS_P2;PMS_P1;PMS_P2;Temp;Humidity;BMP_temperature;BMP_pressure;BME280_temperature;BME280_humidity;BME280_pressure;Samples;Min_cycle;Max_cycle;Signal;HPM_P1;HPM_P2
2021/06/24 00:00:50;;;;;;;7.75;3.50;;;;;;;;;;5063087;28;20198;-73
2021/06/24 00:03:15;;;;;;;5.82;3.05;;;;;;;;;;5065505;28;20290;-74
2021/06/24 00:05:41;;;;;;;9.40;3.65;;;;;;;;;;5061996;28;20303;-72
2021/06/24 00:08:07;;;;;;;9.20;4.35;;;;;;;;;;5062690;28;20180;-74
2021/06/24 00:10:32;;;;;;;5.22;4.25;;;;;;;;;;5059616;28;20694;-71
2021/06/24 00:12:57;;;;;;;7.93;3.63;;;;;;;;;;5060330;28;20186;-72
2021/06/24 00:15:23;;;;;;;9.35;3.55;;;;;;;;;;5054995;28;21920;-72
2021/06/24 00:17:48;;;;;;;4.03;3.20;;;;;;;;;;5069890;28;20330;-72
2021/06/24 00:20:13;;;;;;;5.72;3.45;;;;;;;;;;5054545;28;20193;-72
2021/06/24 00:22:39;;;;;;;7.88;3.92;;;;;;;;;;5048115;28;20319;-72
2021/06/24 00:25:04;;;;;;;7.93;3.72;;;;;;;;;;5051579;28;20253;-72
2021/06/24 00:27:29;;;;;;;6.00;3.75;;;;;;;;;;5051873;28;20886;-71
2021/06/24 00:29:54;;;;;;;5.68;3.70;;;;;;;;;;5050939;28;20707;-74
2021/06/24 00:32:20;;;;;;;6.78;3.85;;;;;;;;;;5056216;28;20174;-72
2021/06/24 00:34:45;;;;;;;7.50;3.90;;;;;;;;;;5050513;28;20205;-74
2021/06/24 00:37:10;;;;;;;5.10;4.03;;;;;;;;;;5055680;28;20311;-75
2021/06/24 00:39:35;;;;;;;5.53;3.83;;;;;;;;;;5054869;28;20189;-74
2021/06/24 00:42:01;;;;;;;7.25;3.78;;;;;;;;;;5053571;28;20177;-74
2021/06/24 00:44:26;;;;;;;6.18;3.92;;;;;;;;;;5054688;28;20198;-74
2021/06/24 00:46:52;;;;;;;7.53;4.18;;;;;;;;;;5055517;28;20478;-73
2021/06/24 00:49:17;;;;;;;10.30;4.22;;;;;;;;;;5051048;28;20930;-73
2021/06/24 00:51:43;;;;;;;14.20;4.75;;;;;;;;;;5053946;28;20197;-73
2021/06/24 00:54:08;;;;;;;5.05;3.95;;;;;;;;;;5051840;28;20200;-73
2021/06/24 00:56:33;;;;;;;6.03;3.67;;;;;;;;;;5053345;28;20806;-73
2021/06/24 00:59:00;;;;;;;5.85;4.00;;;;;;;;;;5051926;28;20178;-74
2021/06/24 01:01:25;;;;;;;6.53;4.40;;;;;;;;;;5054918;28;20185;-73
2021/06/24 01:03:50;;;;;;;11.60;4.40;;;;;;;;;;5051178;28;20197;-73
2021/06/24 01:06:16;;;;;;;6.70;4.00;;;;;;;;;;5054831;28;20189;-73
2021/06/24 01:08:41;;;;;;;4.90;4.03;;;;;;;;;;5052074;28;20184;-73
2021/06/24 01:11:06;;;;;;;8.43;4.18;;;;;;;;;;5062306;28;20177;-73
2021/06/24 01:13:32;;;;;;;8.93;4.85;;;;;;;;;;5061286;28;20235;-73
2021/06/24 01:15:57;;;;;;;6.65;4.28;;;;;;;;;;5060594;28;20184;-73
2021/06/24 01:18:22;;;;;;;6.70;3.60;;;;;;;;;;5049989;28;20731;-73
2021/06/24 01:20:47;;;;;;;7.95;4.50;;;;;;;;;;5046558;28;20178;-72
2021/06/24 01:23:13;;;;;;;6.50;4.60;;;;;;;;;;5054680;28;20164;-73
2021/06/24 01:25:38;;;;;;;8.23;4.45;;;;;;;;;;5055644;28;20557;-73
2021/06/24 01:28:08;;;;;;;5.43;4.20;;;;;;;;;;5053249;28;20193;-73
2021/06/24 01:30:34;;;;;;;5.55;4.20;;;;;;;;;;5052320;28;20264;-73
2021/06/24 01:32:59;;;;;;;9.23;4.78;;;;;;;;;;5049666;28;20180;-73
2021/06/24 01:35:26;;;;;;;5.93;3.80;;;;;;;;;;5057267;28;20544;-73
2021/06/24 01:37:59;;;;;;;9.48;4.05;;;;;;;;;;5052021;28;20697;-73
2021/06/24 01:40:25;;;;;;;8.50;3.88;;;;;;;;;;5051665;28;20351;-73
2021/06/24 01:42:51;;;;;;;7.97;4.20;;;;;;;;;;5058047;28;20543;-73
2021/06/24 01:45:16;;;;;;;5.45;4.60;;;;;;;;;;5052131;28;20235;-72
2021/06/24 01:47:41;;;;;;;4.28;3.55;;;;;;;;;;5051826;28;20189;-72
2021/06/24 01:50:08;;;;;;;6.93;3.92;;;;;;;;;;5053966;28;20693;-75
2021/06/24 01:52:33;;;;;;;5.28;3.55;;;;;;;;;;5054908;28;20663;-71
2021/06/24 01:54:59;;;;;;;5.53;3.83;;;;;;;;;;5057020;28;20215;-72
2021/06/24 01:57:24;;;;;;;4.80;3.53;;;;;;;;;;5054710;28;20204;-72
2021/06/24 01:59:49;;;;;;;6.50;3.63;;;;;;;;;;5055133;28;20196;-72
2021/06/24 02:02:14;;;;;;;6.15;3.75;;;;;;;;;;5051103;28;20174;-72
2021/06/24 02:04:39;;;;;;;6.35;4.50;;;;;;;;;;5054076;28;20212;-72
2021/06/24 02:07:05;;;;;;;4.85;3.58;;;;;;;;;;5059926;28;20176;-72
2021/06/24 02:09:30;;;;;;;5.65;4.30;;;;;;;;;;5053206;28;20181;-72
2021/06/24 02:11:56;;;;;;;8.60;5.20;;;;;;;;;;5050627;28;20825;-72
2021/06/24 02:14:21;;;;;;;4.43;4.00;;;;;;;;;;5052268;28;20396;-72
2021/06/24 02:16:46;;;;;;;6.03;3.80;;;;;;;;;;5051688;28;20216;-72
2021/06/24 02:19:12;;;;;;;5.50;4.13;;;;;;;;;;5049850;28;20192;-72
2021/06/24 02:21:37;;;;;;;6.10;3.72;;;;;;;;;;5060321;28;20658;-73
2021/06/24 02:24:02;;;;;;;12.57;4.03;;;;;;;;;;5050422;28;20236;-73
2021/06/24 02:26:27;;;;;;;6.10;3.78;;;;;;;;;;5055737;28;20572;-72
2021/06/24 02:28:53;;;;;;;5.63;3.10;;;;;;;;;;5049104;28;20271;-72
2021/06/24 02:31:18;;;;;;;9.75;5.45;;;;;;;;;;5050974;28;20258;-74
2021/06/24 02:33:43;;;;;;;6.93;3.80;;;;;;;;;;5048231;28;20277;-72
2021/06/24 02:36:08;;;;;;;5.57;3.47;;;;;;;;;;5051368;28;20644;-74
2021/06/24 02:38:33;;;;;;;9.32;4.35;;;;;;;;;;5052115;28;20181;-74
2021/06/24 02:40:59;;;;;;;8.35;4.07;;;;;;;;;;5056064;28;20235;-73
2021/06/24 02:43:24;;;;;;;3.92;3.42;;;;;;;;;;5052065;28;20200;-74
2021/06/24 02:45:49;;;;;;;5.68;3.67;;;;;;;;;;5052297;28;20180;-73
2021/06/24 02:48:14;;;;;;;6.13;3.72;;;;;;;;;;5050397;28;20906;-72
2021/06/24 02:50:40;;;;;;;6.68;3.42;;;;;;;;;;5053175;28;20609;-72
2021/06/24 02:53:05;;;;;;;6.80;3.83;;;;;;;;;;5049745;28;20246;-74
2021/06/24 02:55:30;;;;;;;6.10;3.25;;;;;;;;;;5055633;28;20180;-73
2021/06/24 02:57:56;;;;;;;5.53;3.10;;;;;;;;;;5048103;28;20205;-72
2021/06/24 03:00:22;;;;;;;7.95;4.10;;;;;;;;;;5051204;28;20190;-72
2021/06/24 03:02:47;;;;;;;4.90;3.58;;;;;;;;;;5049114;28;20173;-75
2021/06/24 03:05:12;;;;;;;4.80;3.80;;;;;;;;;;5052066;28;20196;-72
2021/06/24 03:07:38;;;;;;;7.03;3.50;;;;;;;;;;5053456;28;20177;-74
2021/06/24 03:10:04;;;;;;;4.97;3.75;;;;;;;;;;5053104;28;20216;-72
2021/06/24 03:12:29;;;;;;;7.72;4.10;;;;;;;;;;5072289;28;20239;-72
2021/06/24 03:14:54;;;;;;;7.95;3.78;;;;;;;;;;5080871;28;20180;-71
2021/06/24 03:17:19;;;;;;;3.45;3.10;;;;;;;;;;5082353;28;20216;-72
2021/06/24 03:19:45;;;;;;;5.70;3.60;;;;;;;;;;5080147;28;20173;-72
2021/06/24 03:22:10;;;;;;;4.15;3.30;;;;;;;;;;5078476;28;20196;-71
2021/06/24 03:24:35;;;;;;;5.00;3.83;;;;;;;;;;5080175;28;20193;-71
2021/06/24 03:27:00;;;;;;;6.82;3.15;;;;;;;;;;5083038;28;20183;-70
2021/06/24 03:29:25;;;;;;;6.10;3.65;;;;;;;;;;5077685;28;20178;-71
2021/06/24 03:31:52;;;;;;;5.85;3.45;;;;;;;;;;5084544;28;20240;-72
2021/06/24 03:34:17;;;;;;;11.57;4.80;;;;;;;;;;5059047;28;20750;-72
2021/06/24 03:36:42;;;;;;;6.22;3.72;;;;;;;;;;5059819;28;20351;-74
2021/06/24 03:39:08;;;;;;;5.13;3.70;;;;;;;;;;5057230;28;20312;-72
2021/06/24 03:41:33;;;;;;;18.23;5.60;;;;;;;;;;5062963;28;20188;-71
2021/06/24 03:43:58;;;;;;;5.95;4.07;;;;;;;;;;5056136;28;20474;-71
2021/06/24 03:46:24;;;;;;;6.90;3.97;;;;;;;;;;5062061;28;20196;-72
2021/06/24 03:48:50;;;;;;;5.10;3.33;;;;;;;;;;5053719;28;20177;-72
2021/06/24 03:51:15;;;;;;;6.03;4.20;;;;;;;;;;5059045;28;20237;-72
2021/06/24 03:53:40;;;;;;;4.93;3.90;;;;;;;;;;5054681;28;20223;-72
2021/06/24 03:56:06;;;;;;;4.80;4.05;;;;;;;;;;5059268;28;20288;-72
2021/06/24 03:58:31;;;;;;;5.75;3.50;;;;;;;;;;5051721;28;20204;-71
2021/06/24 04:00:57;;;;;;;3.95;3.55;;;;;;;;;;5052231;28;22352;-71
2021/06/24 04:03:23;;;;;;;7.05;3.88;;;;;;;;;;5056283;28;20205;-72
2021/06/24 04:05:48;;;;;;;7.10;3.13;;;;;;;;;;5057468;28;20183;-72
2021/06/24 04:08:13;;;;;;;6.65;3.88;;;;;;;;;;5061022;28;20907;-72
2021/06/24 04:10:38;;;;;;;8.40;3.50;;;;;;;;;;5056734;28;20793;-72
2021/06/24 04:13:04;;;;;;;5.40;3.72;;;;;;;;;;5054670;28;20182;-72
2021/06/24 04:15:30;;;;;;;7.07;3.63;;;;;;;;;;5058747;28;20196;-72
2021/06/24 04:17:55;;;;;;;6.68;3.42;;;;;;;;;;5062461;28;20260;-74
2021/06/24 04:20:21;;;;;;;10.02;4.43;;;;;;;;;;5053955;28;20702;-74
2021/06/24 04:22:46;;;;;;;4.85;3.58;;;;;;;;;;5051989;28;20390;-72
2021/06/24 04:25:13;;;;;;;5.65;3.90;;;;;;;;;;5054009;28;20197;-72
2021/06/24 04:27:39;;;;;;;5.68;3.60;;;;;;;;;;5048928;28;20208;-74
2021/06/24 04:30:05;;;;;;;6.30;4.45;;;;;;;;;;5052636;28;20269;-74
2021/06/24 04:32:30;;;;;;;4.75;3.72;;;;;;;;;;5051369;28;20185;-74
2021/06/24 04:34:55;;;;;;;4.32;3.28;;;;;;;;;;5051832;28;20204;-74
2021/06/24 04:37:21;;;;;;;7.05;3.95;;;;;;;;;;5056248;28;20202;-74
2021/06/24 04:39:46;;;;;;;4.50;3.42;;;;;;;;;;5052056;28;20324;-73
2021/06/24 04:42:11;;;;;;;4.82;3.72;;;;;;;;;;5056620;28;20905;-74
2021/06/24 04:44:36;;;;;;;7.15;3.70;;;;;;;;;;5055196;28;20611;-74
2021/06/24 04:47:02;;;;;;;9.18;4.10;;;;;;;;;;5052036;28;20176;-74
2021/06/24 04:49:27;;;;;;;7.07;4.05;;;;;;;;;;5055450;28;20177;-74
2021/06/24 04:51:53;;;;;;;6.43;4.00;;;;;;;;;;5053309;28;20188;-73
2021/06/24 04:54:18;;;;;;;4.50;3.90;;;;;;;;;;5049793;28;20209;-73
2021/06/24 04:56:43;;;;;;;9.70;4.28;;;;;;;;;;5062903;28;20208;-74
2021/06/24 04:59:08;;;;;;;6.82;4.05;;;;;;;;;;5051165;28;20224;-74
2021/06/24 05:01:33;;;;;;;5.60;4.45;;;;;;;;;;5054510;28;20215;-74
2021/06/24 05:03:58;;;;;;;16.70;5.32;;;;;;;;;;5060650;28;20342;-74
2021/06/24 05:06:24;;;;;;;4.90;4.32;;;;;;;;;;5052884;28;20181;-74
2021/06/24 05:08:49;;;;;;;8.13;4.25;;;;;;;;;;5056354;28;20661;-72
2021/06/24 05:11:15;;;;;;;5.65;3.72;;;;;;;;;;5056326;28;20185;-72
2021/06/24 05:13:40;;;;;;;4.65;3.60;;;;;;;;;;5052619;28;20259;-72
2021/06/24 05:16:06;;;;;;;6.60;3.90;;;;;;;;;;5053520;28;20182;-72
2021/06/24 05:18:32;;;;;;;8.60;4.10;;;;;;;;;;5057405;28;20240;-74
2021/06/24 05:20:59;;;;;;;5.80;3.63;;;;;;;;;;5048959;28;20809;-72
2021/06/24 05:23:25;;;;;;;7.22;5.03;;;;;;;;;;5053033;28;20197;-72
2021/06/24 05:25:50;;;;;;;5.75;3.70;;;;;;;;;;5049811;28;20177;-75
2021/06/24 05:28:15;;;;;;;4.40;3.97;;;;;;;;;;5050130;28;20761;-73
2021/06/24 05:30:41;;;;;;;8.05;4.40;;;;;;;;;;5052183;28;20565;-73
2021/06/24 05:33:06;;;;;;;8.65;5.05;;;;;;;;;;5051230;28;21259;-73
2021/06/24 05:35:32;;;;;;;7.18;3.70;;;;;;;;;;5054438;28;20184;-73
2021/06/24 05:37:57;;;;;;;7.03;3.72;;;;;;;;;;5055652;28;20318;-73
2021/06/24 05:40:22;;;;;;;4.40;3.38;;;;;;;;;;5055208;28;20669;-73
2021/06/24 05:42:48;;;;;;;4.70;3.58;;;;;;;;;;5055004;28;20316;-73
2021/06/24 05:45:13;;;;;;;9.10;4.70;;;;;;;;;;5051861;28;20197;-73
2021/06/24 05:47:38;;;;;;;8.35;3.50;;;;;;;;;;5053892;28;20177;-73
2021/06/24 05:50:04;;;;;;;5.93;3.83;;;;;;;;;;5052418;28;20569;-73
2021/06/24 05:52:29;;;;;;;6.72;3.25;;;;;;;;;;5054680;28;20185;-73
2021/06/24 05:54:54;;;;;;;6.82;3.53;;;;;;;;;;5052887;28;20579;-73
2021/06/24 05:57:19;;;;;;;8.23;3.80;;;;;;;;;;5048952;28;20204;-73
2021/06/24 05:59:45;;;;;;;3.40;3.10;;;;;;;;;;5053003;28;20185;-73
2021/06/24 06:02:10;;;;;;;6.13;3.38;;;;;;;;;;5055180;28;20178;-74
2021/06/24 06:04:35;;;;;;;8.45;3.55;;;;;;;;;;5053048;28;21650;-74
2021/06/24 06:07:01;;;;;;;4.28;2.80;;;;;;;;;;5048419;28;20277;-74
2021/06/24 06:09:26;;;;;;;5.53;3.45;;;;;;;;;;5050494;28;20185;-74
2021/06/24 06:11:51;;;;;;;3.67;3.20;;;;;;;;;;5051897;28;20195;-74
2021/06/24 06:14:16;;;;;;;4.43;3.15;;;;;;;;;;5050583;28;20213;-74
2021/06/24 06:16:45;;;;;;;4.32;3.33;;;;;;;;;;5052100;28;20245;-71
2021/06/24 06:19:10;;;;;;;5.20;3.42;;;;;;;;;;5056714;28;20223;-72
2021/06/24 06:21:35;;;;;;;5.65;3.05;;;;;;;;;;5061433;28;20190;-72
2021/06/24 06:24:01;;;;;;;7.63;2.88;;;;;;;;;;5059080;28;20573;-71
2021/06/24 06:26:27;;;;;;;4.63;2.85;;;;;;;;;;5050536;28;20534;-74
2021/06/24 06:28:52;;;;;;;3.90;3.00;;;;;;;;;;5051504;28;20228;-74
2021/06/24 06:31:18;;;;;;;4.18;3.13;;;;;;;;;;5052751;28;20223;-71
2021/06/24 06:33:43;;;;;;;8.20;3.13;;;;;;;;;;5055152;28;20287;-72
2021/06/24 06:36:09;;;;;;;5.88;2.92;;;;;;;;;;5055041;28;20194;-71
2021/06/24 06:38:34;;;;;;;7.13;3.20;;;;;;;;;;5051597;28;20215;-72
2021/06/24 06:40:59;;;;;;;7.18;3.95;;;;;;;;;;5057962;28;20925;-72
2021/06/24 06:43:25;;;;;;;7.07;3.60;;;;;;;;;;5050647;28;20284;-72
2021/06/24 06:45:50;;;;;;;8.75;3.10;;;;;;;;;;5054163;28;20169;-72
2021/06/24 06:48:16;;;;;;;5.32;2.75;;;;;;;;;;5055073;28;20191;-72
2021/06/24 06:50:42;;;;;;;6.80;2.70;;;;;;;;;;5049225;28;20180;-72
2021/06/24 06:53:07;;;;;;;6.47;2.65;;;;;;;;;;5052190;28;20189;-72
2021/06/24 06:55:33;;;;;;;6.32;2.65;;;;;;;;;;5056669;28;20210;-71
2021/06/24 06:57:59;;;;;;;6.18;2.83;;;;;;;;;;5051115;28;20365;-72
2021/06/24 07:00:25;;;;;;;4.93;2.70;;;;;;;;;;5049473;28;20719;-72
2021/06/24 07:02:51;;;;;;;4.68;2.28;;;;;;;;;;5051298;28;20204;-72
2021/06/24 07:05:16;;;;;;;5.07;2.47;;;;;;;;;;5054551;28;20192;-72
2021/06/24 07:07:41;;;;;;;3.50;2.10;;;;;;;;;;5053245;28;22215;-72
2021/06/24 07:10:07;;;;;;;6.85;2.55;;;;;;;;;;5049500;28;20178;-73
2021/06/24 07:12:32;;;;;;;6.07;2.83;;;;;;;;;;5054706;28;20185;-74
2021/06/24 07:14:57;;;;;;;5.82;2.30;;;;;;;;;;5051762;28;20588;-74
2021/06/24 07:17:22;;;;;;;5.13;2.28;;;;;;;;;;5053884;28;20589;-72
2021/06/24 07:19:48;;;;;;;4.03;2.10;;;;;;;;;;5050129;28;20222;-72
2021/06/24 07:22:13;;;;;;;13.93;3.13;;;;;;;;;;5055795;28;20212;-72
2021/06/24 07:24:38;;;;;;;6.03;2.05;;;;;;;;;;5053841;28;20446;-72
2021/06/24 07:27:04;;;;;;;6.35;2.50;;;;;;;;;;5054447;28;20242;-72
2021/06/24 07:29:29;;;;;;;4.15;2.22;;;;;;;;;;5058195;28;20242;-74
2021/06/24 07:31:54;;;;;;;6.85;2.67;;;;;;;;;;5059030;28;20203;-74
2021/06/24 07:34:19;;;;;;;5.55;1.90;;;;;;;;;;5077705;28;20265;-72
2021/06/24 07:36:45;;;;;;;6.07;2.33;;;;;;;;;;5082449;28;20228;-71
2021/06/24 07:39:11;;;;;;;3.60;2.03;;;;;;;;;;5083869;28;20208;-72
2021/06/24 07:41:36;;;;;;;5.85;2.33;;;;;;;;;;5087618;28;20195;-71
2021/06/24 07:44:01;;;;;;;5.80;2.37;;;;;;;;;;5083091;28;20221;-72
2021/06/24 07:46:27;;;;;;;3.78;2.20;;;;;;;;;;5084122;28;20497;-72
2021/06/24 07:48:52;;;;;;;6.38;2.30;;;;;;;;;;5082706;28;20168;-71
2021/06/24 07:51:17;;;;;;;3.60;2.00;;;;;;;;;;5087965;28;20241;-71
2021/06/24 07:53:43;;;;;;;4.47;2.30;;;;;;;;;;5084149;28;20189;-71
2021/06/24 07:56:09;;;;;;;6.93;2.50;;;;;;;;;;5084180;28;20169;-72
2021/06/24 07:58:35;;;;;;;5.78;2.60;;;;;;;;;;5081112;28;20209;-71
2021/06/24 08:01:00;;;;;;;4.65;1.90;;;;;;;;;;5080395;28;20192;-72
2021/06/24 08:03:25;;;;;;;4.45;2.22;;;;;;;;;;5059680;28;20211;-73
2021/06/24 08:05:50;;;;;;;5.93;2.83;;;;;;;;;;5059358;28;20181;-73
2021/06/24 08:08:16;;;;;;;7.60;2.40;;;;;;;;;;5057775;28;20191;-73
2021/06/24 08:10:41;;;;;;;6.85;2.30;;;;;;;;;;5057821;28;21785;-73
2021/06/24 08:13:06;;;;;;;6.80;2.73;;;;;;;;;;5055126;28;20494;-73
2021/06/24 08:15:31;;;;;;;4.97;2.55;;;;;;;;;;5054910;28;20838;-73
2021/06/24 08:17:57;;;;;;;6.00;2.35;;;;;;;;;;5063874;28;20216;-73
2021/06/24 08:20:22;;;;;;;3.42;2.22;;;;;;;;;;5056667;28;20173;-73
2021/06/24 08:22:47;;;;;;;7.00;2.47;;;;;;;;;;5055299;28;20196;-73
2021/06/24 08:25:13;;;;;;;2.95;2.38;;;;;;;;;;5054250;28;20283;-73
2021/06/24 08:27:39;;;;;;;4.50;2.00;;;;;;;;;;5061269;28;20235;-72
2021/06/24 08:30:05;;;;;;;5.07;2.60;;;;;;;;;;5051989;28;20219;-73
2021/06/24 08:32:30;;;;;;;4.90;2.10;;;;;;;;;;5053078;28;20177;-73
2021/06/24 08:34:55;;;;;;;5.35;2.30;;;;;;;;;;5052380;28;20693;-73
2021/06/24 08:37:20;;;;;;;5.47;2.17;;;;;;;;;;5052997;28;20637;-73
2021/06/24 08:39:48;;;;;;;4.72;2.03;;;;;;;;;;5056027;28;22022;-71
2021/06/24 08:42:14;;;;;;;3.10;1.88;;;;;;;;;;5057939;28;20681;-72
2021/06/24 08:44:39;;;;;;;5.72;2.28;;;;;;;;;;5051925;28;20197;-72
2021/06/24 08:47:06;;;;;;;3.85;2.17;;;;;;;;;;5062058;28;20185;-73
2021/06/24 08:49:32;;;;;;;3.95;2.25;;;;;;;;;;5054370;28;20619;-73
2021/06/24 08:51:58;;;;;;;3.42;2.10;;;;;;;;;;5055011;28;20232;-73
2021/06/24 08:54:23;;;;;;;5.72;2.63;;;;;;;;;;5053921;28;20762;-73
2021/06/24 08:56:49;;;;;;;3.80;2.45;;;;;;;;;;5055811;28;20240;-73
2021/06/24 08:59:14;;;;;;;5.00;2.30;;;;;;;;;;5050426;28;20239;-72
2021/06/24 09:01:49;;;;;;;4.25;1.90;;;;;;;;;;5054847;28;20182;-74
2021/06/24 09:04:17;;;;;;;4.40;2.22;;;;;;;;;;5058362;28;20203;-73
2021/06/24 09:06:42;;;;;;;3.60;2.30;;;;;;;;;;5057343;28;20909;-72
2021/06/24 09:09:07;;;;;;;6.60;2.15;;;;;;;;;;5057548;28;20192;-72
2021/06/24 09:11:32;;;;;;;4.15;2.42;;;;;;;;;;5054725;28;20238;-73
2021/06/24 09:14:02;;;;;;;5.07;3.00;;;;;;;;;;5054456;28;20801;-73
2021/06/24 09:16:38;;;;;;;6.35;2.20;;;;;;;;;;5055020;28;20436;-73
2021/06/24 09:19:19;;;;;;;4.70;2.15;;;;;;;;;;5056504;28;20187;-72
2021/06/24 09:21:45;;;;;;;3.28;2.45;;;;;;;;;;5052072;28;20181;-73
2021/06/24 09:24:20;;;;;;;4.93;2.20;;;;;;;;;;5052172;28;20363;-73
2021/06/24 09:26:46;;;;;;;5.38;2.17;;;;;;;;;;5054692;28;20208;-73
2021/06/24 09:29:15;;;;;;;3.90;2.40;;;;;;;;;;5054231;28;20271;-72
2021/06/24 09:31:42;;;;;;;3.28;2.40;;;;;;;;;;5057113;28;20427;-73
2021/06/24 09:34:10;;;;;;;5.95;2.70;;;;;;;;;;5052361;28;20239;-73
2021/06/24 09:36:36;;;;;;;4.43;2.17;;;;;;;;;;5059218;28;20184;-73
2021/06/24 09:39:03;;;;;;;6.30;2.70;;;;;;;;;;5063236;28;20196;-73
2021/06/24 09:41:29;;;;;;;5.32;2.40;;;;;;;;;;5062759;28;20180;-73
2021/06/24 09:43:54;;;;;;;3.88;2.22;;;;;;;;;;5052946;28;20201;-73
2021/06/24 09:46:20;;;;;;;5.00;1.98;;;;;;;;;;5054051;28;20192;-73
2021/06/24 09:48:47;;;;;;;4.75;1.75;;;;;;;;;;5051690;28;20181;-73
2021/06/24 09:51:22;;;;;;;4.72;2.22;;;;;;;;;;5052688;28;20180;-73
2021/06/24 09:53:48;;;;;;;4.63;2.30;;;;;;;;;;5058356;28;20211;-73
2021/06/24 09:56:21;;;;;;;3.65;2.45;;;;;;;;;;5052246;28;20199;-72
2021/06/24 09:58:47;;;;;;;5.70;2.90;;;;;;;;;;5050680;28;20235;-72
2021/06/24 10:01:24;;;;;;;4.40;2.15;;;;;;;;;;5054071;28;20386;-72
2021/06/24 10:03:50;;;;;;;4.15;1.80;;;;;;;;;;5053662;28;20212;-72
2021/06/24 10:06:15;;;;;;;3.45;2.15;;;;;;;;;;5055329;28;20173;-72
2021/06/24 10:08:40;;;;;;;3.85;2.13;;;;;;;;;;5057477;28;20180;-72
2021/06/24 10:11:05;;;;;;;4.00;2.10;;;;;;;;;;5058891;28;20176;-73
2021/06/24 10:13:30;;;;;;;5.53;2.92;;;;;;;;;;5056385;28;20982;-72
2021/06/24 10:15:56;;;;;;;2.67;1.90;;;;;;;;;;5052234;28;20184;-72
2021/06/24 10:18:22;;;;;;;4.18;2.50;;;;;;;;;;5052823;28;20200;-73
2021/06/24 10:20:48;;;;;;;5.95;2.42;;;;;;;;;;5039454;28;20754;-73
2021/06/24 10:23:17;;;;;;;3.25;2.20;;;;;;;;;;5050547;28;20188;-72
2021/06/24 10:25:43;;;;;;;4.45;1.90;;;;;;;;;;5054280;28;20174;-73
2021/06/24 10:28:09;;;;;;;4.28;2.63;;;;;;;;;;5058409;28;20168;-73
2021/06/24 10:30:39;;;;;;;6.35;2.47;;;;;;;;;;5052042;28;20204;-72
2021/06/24 10:33:07;;;;;;;6.75;2.55;;;;;;;;;;5051514;28;20746;-72
2021/06/24 10:35:34;;;;;;;5.18;2.28;;;;;;;;;;5056134;28;20199;-73
2021/06/24 10:37:59;;;;;;;2.90;2.10;;;;;;;;;;5052606;28;20208;-73
2021/06/24 10:40:26;;;;;;;4.32;2.00;;;;;;;;;;5052561;28;20185;-73
2021/06/24 10:42:53;;;;;;;4.25;2.38;;;;;;;;;;5053288;28;20216;-73
2021/06/24 10:45:18;;;;;;;6.25;3.03;;;;;;;;;;5050970;28;20213;-73
2021/06/24 10:47:43;;;;;;;3.78;1.88;;;;;;;;;;5053106;28;20620;-73
2021/06/24 10:50:33;;;;;;;7.55;2.50;;;;;;;;;;5055179;28;20188;-72
2021/06/24 10:52:59;;;;;;;3.42;2.25;;;;;;;;;;5051259;28;20180;-73
2021/06/24 10:55:39;;;;;;;4.03;2.20;;;;;;;;;;5053320;28;20193;-71
2021/06/24 10:58:10;;;;;;;5.45;1.98;;;;;;;;;;5056860;28;20572;-72
2021/06/24 11:00:48;;;;;;;4.72;2.20;;;;;;;;;;5055145;28;20189;-72
2021/06/24 11:03:14;;;;;;;5.72;2.15;;;;;;;;;;5054911;28;20181;-73
2021/06/24 11:05:43;;;;;;;3.35;1.90;;;;;;;;;;5061677;28;20186;-74
2021/06/24 11:08:17;;;;;;;5.15;2.40;;;;;;;;;;5067215;28;20176;-73
2021/06/24 11:10:56;;;;;;;5.47;2.42;;;;;;;;;;5063193;28;20177;-72
2021/06/24 11:13:39;;;;;;;3.60;2.25;;;;;;;;;;5058081;28;20188;-73
2021/06/24 11:16:06;;;;;;;4.30;2.40;;;;;;;;;;5059061;28;20254;-73
2021/06/24 11:18:31;;;;;;;4.13;2.35;;;;;;;;;;5058607;28;20390;-73
2021/06/24 11:21:02;;;;;;;5.40;2.60;;;;;;;;;;5058126;28;20511;-73
2021/06/24 11:23:35;;;;;;;5.05;2.70;;;;;;;;;;5052955;28;21041;-73
2021/06/24 11:26:09;;;;;;;5.07;2.30;;;;;;;;;;5059591;28;20189;-73
2021/06/24 11:28:47;;;;;;;5.22;2.13;;;;;;;;;;5055045;28;20211;-73
2021/06/24 11:31:14;;;;;;;4.00;2.67;;;;;;;;;;5053965;28;20220;-73
2021/06/24 11:33:47;;;;;;;5.00;2.80;;;;;;;;;;5056152;28;20768;-73
2021/06/24 11:36:15;;;;;;;5.00;2.33;;;;;;;;;;5062237;28;20176;-73
2021/06/24 11:38:47;;;;;;;5.80;2.80;;;;;;;;;;5054772;28;21053;-73
2021/06/24 11:41:13;;;;;;;5.95;2.58;;;;;;;;;;5061476;28;20249;-73
2021/06/24 11:43:39;;;;;;;3.88;2.80;;;;;;;;;;5055374;28;21374;-73
2021/06/24 11:46:05;;;;;;;6.57;3.05;;;;;;;;;;5056414;28;20208;-73
2021/06/24 11:48:30;;;;;;;4.13;3.17;;;;;;;;;;5059872;28;20186;-73
2021/06/24 12:04:55;;;;;;;4.35;2.72;;;;;;;;;;5053244;28;20581;-73
2021/06/24 12:07:21;;;;;;;4.72;2.42;;;;;;;;;;5054717;28;20185;-73
2021/06/24 12:09:50;;;;;;;3.70;2.87;;;;;;;;;;5052853;28;20185;-72
2021/06/24 12:12:18;;;;;;;3.88;3.25;;;;;;;;;;5057103;28;20458;-72
2021/06/24 12:14:43;;;;;;;3.35;2.97;;;;;;;;;;5068437;28;20204;-73
2021/06/24 12:17:15;;;;;;;3.92;3.45;;;;;;;;;;5063677;28;20220;-73
2021/06/24 12:19:48;;;;;;;3.58;2.90;;;;;;;;;;5056337;28;20671;-72
2021/06/24 12:22:15;;;;;;;4.57;3.60;;;;;;;;;;5065009;28;20192;-73
2021/06/24 12:24:41;;;;;;;4.70;3.67;;;;;;;;;;5081803;28;20205;-72
2021/06/24 12:27:15;;;;;;;6.97;4.00;;;;;;;;;;5088574;28;20336;-72
2021/06/24 12:29:40;;;;;;;4.13;3.50;;;;;;;;;;5081520;28;20195;-72
2021/06/24 12:32:06;;;;;;;4.10;3.40;;;;;;;;;;5086715;28;20192;-72
2021/06/24 12:34:31;;;;;;;6.63;4.47;;;;;;;;;;5083630;28;20209;-72
2021/06/24 12:36:56;;;;;;;5.68;4.32;;;;;;;;;;5084343;28;20436;-73
2021/06/24 12:39:22;;;;;;;4.40;4.00;;;;;;;;;;5079931;28;20197;-72
2021/06/24 12:41:48;;;;;;;6.38;3.65;;;;;;;;;;5087861;28;20417;-72
2021/06/24 12:44:13;;;;;;;6.57;3.47;;;;;;;;;;5083987;28;20209;-72
2021/06/24 12:46:38;;;;;;;5.77;3.90;;;;;;;;;;5082896;28;20563;-72
2021/06/24 12:49:13;;;;;;;4.80;3.40;;;;;;;;;;5060207;28;20494;-73
2021/06/24 12:51:38;;;;;;;4.38;3.13;;;;;;;;;;5054297;28;20432;-72
2021/06/24 12:54:13;;;;;;;6.32;3.70;;;;;;;;;;5055482;28;20197;-72
2021/06/24 12:56:38;;;;;;;4.32;3.78;;;;;;;;;;5057340;28;20988;-73
2021/06/24 12:59:12;;;;;;;4.93;4.53;;;;;;;;;;5054953;28;20856;-73
2021/06/24 13:01:39;;;;;;;5.30;4.25;;;;;;;;;;5055546;28;20419;-73
2021/06/24 13:04:11;;;;;;;6.07;4.75;;;;;;;;;;5057759;28;20280;-74
2021/06/24 13:06:41;;;;;;;5.88;4.40;;;;;;;;;;5055900;28;20177;-74
2021/06/24 13:09:07;;;;;;;6.38;4.15;;;;;;;;;;5059006;28;20177;-74
2021/06/24 13:11:34;;;;;;;4.85;3.42;;;;;;;;;;5059193;28;20168;-74
2021/06/24 13:14:04;;;;;;;10.30;9.30;;;;;;;;;;5052439;28;20663;-74
2021/06/24 13:16:29;;;;;;;4.32;3.92;;;;;;;;;;5055725;28;20563;-73
2021/06/24 13:18:56;;;;;;;5.35;3.75;;;;;;;;;;5053963;28;20213;-73
2021/06/24 13:21:22;;;;;;;5.57;3.90;;;;;;;;;;5058015;28;20655;-74
2021/06/24 13:23:47;;;;;;;4.88;3.67;;;;;;;;;;5055263;28;20196;-74
2021/06/24 13:26:16;;;;;;;4.63;3.75;;;;;;;;;;5053283;28;20178;-74
2021/06/24 13:28:43;;;;;;;6.05;4.45;;;;;;;;;;5055555;28;20586;-74
2021/06/24 13:31:08;;;;;;;4.75;4.28;;;;;;;;;;5062574;28;20280;-74
2021/06/24 13:33:35;;;;;;;5.15;4.18;;;;;;;;;;5055614;28;20196;-74
2021/06/24 13:36:00;;;;;;;4.97;4.40;;;;;;;;;;5056736;28;20181;-74
2021/06/24 13:38:25;;;;;;;5.17;4.73;;;;;;;;;;5054707;28;20710;-74
2021/06/24 13:40:51;;;;;;;5.93;4.97;;;;;;;;;;5058288;28;20450;-74
2021/06/24 13:43:28;;;;;;;5.90;5.28;;;;;;;;;;5049175;28;20595;-72
2021/06/24 13:45:54;;;;;;;4.63;4.22;;;;;;;;;;5034249;28;20272;-73
2021/06/24 13:48:20;;;;;;;6.03;5.15;;;;;;;;;;5035245;28;20326;-72
2021/06/24 13:50:45;;;;;;;8.65;5.40;;;;;;;;;;5028310;28;20189;-72
2021/06/24 13:53:17;;;;;;;6.40;4.90;;;;;;;;;;5029968;28;20577;-73
2021/06/24 13:55:44;;;;;;;9.05;5.57;;;;;;;;;;5034178;28;20466;-72
2021/06/24 13:58:09;;;;;;;6.00;5.40;;;;;;;;;;5027809;28;20273;-72
2021/06/24 14:00:38;;;;;;;6.57;5.97;;;;;;;;;;5029866;28;20177;-72
2021/06/24 14:03:05;;;;;;;7.03;5.13;;;;;;;;;;5030645;28;20458;-72
2021/06/24 14:05:30;;;;;;;8.07;5.70;;;;;;;;;;5032408;28;21066;-72
2021/06/24 14:07:55;;;;;;;6.25;5.70;;;;;;;;;;5030342;28;20274;-72
2021/06/24 14:10:20;;;;;;;5.60;5.10;;;;;;;;;;5028400;28;20260;-73
2021/06/24 14:12:46;;;;;;;6.50;5.90;;;;;;;;;;5028838;28;20682;-74
2021/06/24 14:15:11;;;;;;;5.07;4.57;;;;;;;;;;5028784;28;20282;-72
2021/06/24 14:17:36;;;;;;;8.25;6.40;;;;;;;;;;5028672;28;21252;-72
2021/06/24 14:20:02;;;;;;;6.30;5.00;;;;;;;;;;5029347;28;20243;-74
2021/06/24 14:22:27;;;;;;;8.45;6.10;;;;;;;;;;5027351;28;20888;-74
2021/06/24 14:24:52;;;;;;;7.77;6.97;;;;;;;;;;5030094;28;20300;-74
2021/06/24 14:27:17;;;;;;;6.53;5.90;;;;;;;;;;5029228;28;20685;-74
2021/06/24 14:29:42;;;;;;;5.27;4.77;;;;;;;;;;5030651;28;20439;-74
2021/06/24 14:32:08;;;;;;;9.20;5.97;;;;;;;;;;5030387;28;20426;-73
2021/06/24 14:34:33;;;;;;;5.60;5.03;;;;;;;;;;5029873;28;20451;-72
2021/06/24 14:36:58;;;;;;;8.13;6.40;;;;;;;;;;5030807;28;20318;-73
2021/06/24 14:39:24;;;;;;;8.50;7.05;;;;;;;;;;5030723;28;20284;-72
2021/06/24 14:41:49;;;;;;;9.45;6.20;;;;;;;;;;5030278;28;20344;-73
2021/06/24 14:44:14;;;;;;;8.65;7.15;;;;;;;;;;5034400;28;20296;-74
2021/06/24 14:46:40;;;;;;;8.00;7.18;;;;;;;;;;5031024;28;20193;-72
2021/06/24 14:49:05;;;;;;;7.40;6.47;;;;;;;;;;5026917;28;20181;-73
2021/06/24 14:51:31;;;;;;;6.53;5.75;;;;;;;;;;5032387;28;20186;-72